Size

Size

Statistiques 2021

  • Nb de partants : 387
  • Nb de victoires : 51
  • Nb de places : 115
  • Écart gagnant : 27
  • Réussite à la gagne : 13%
  • Réussite à la place : 30%
Musique : 5p 12p 2p 6p 4p 9p 13p 4p 12p 9p 8p 5p 11p 6p 5p 4p 10p 9p
ChevalDernière courseCoursesVictoiresR. à la gagnePlacésR. à la place
Touch Faith 20/10/21 8 0 - 1 13%
Wild West Wing 20/10/21 21 3 14% 7 33%
A Smile Like Yours 20/10/21 11 1 9% 4 36%
Diamond Star 20/10/21 14 0 - 1 7%
Scores Of Fun 17/10/21 15 3 20% 9 60%
Fantastic Way 17/10/21 4 2 50% 3 75%
Ping Hai Bravo 17/10/21 15 5 33% 6 40%
Tempest Express 17/10/21 11 2 18% 3 27%
Champion's Way 17/10/21 16 3 19% 6 38%
Waikuku 17/10/21 11 2 18% 4 36%
Savaquin 17/10/21 16 3 19% 8 50%
Courier Wonder 17/10/21 6 5 83% 5 83%
Leap Of Faith 17/10/21 15 3 20% 8 53%
Dr Winning 17/10/21 0 0 - 0 -
Country Boy 17/10/21 6 0 - 1 17%
Master Delight 10/10/21 2 0 - 1 50%
Crossford 10/10/21 4 1 25% 3 75%
Red Desert 10/10/21 17 3 18% 7 41%
Elon 10/10/21 8 1 13% 1 13%
Dragon Baby 10/10/21 8 1 13% 2 25%
Beauty Fit 06/10/21 12 2 17% 4 33%
Rhapsody 06/10/21 15 2 13% 5 33%
Wealthy Delight 06/10/21 14 2 14% 5 36%
Drops Of God 01/10/21 6 3 50% 5 83%
Hong Kong Win 01/10/21 17 3 18% 11 65%
Sight Success 01/10/21 7 2 29% 3 43%
Amazing Teens 01/10/21 0 0 - 0 -
Shining Ace 26/09/21 30 4 13% 15 50%
Beauty Legacy 26/09/21 18 0 - 2 11%
Heza Beauty 26/09/21 18 3 17% 8 44%
Incanto Prepared 15/09/21 18 4 22% 8 44%
Power Koepp 12/09/21 2 0 - 0 -
Blaze Warrior 11/07/21 3 3 100% 3 100%
Lucky Express 11/07/21 12 1 8% 8 67%
Zone D 11/07/21 9 1 11% 6 67%
Amazement 11/07/21 4 0 - 0 -
Raging Blaze 11/07/21 6 0 - 0 -
Beauty Cheers 07/07/21 8 0 - 2 25%
Wind N Grass 04/07/21 25 3 12% 10 40%
Leading Fortune 04/07/21 22 3 14% 8 36%
Dashing Fit 04/07/21 2 1 50% 2 100%
Panzerschreck 04/07/21 1 0 - 0 -
Toronado Phantom 04/07/21 0 0 - 0 -
Special M 01/07/21 3 0 - 0 -
Destine Jewellery 01/07/21 24 1 4% 4 17%
Aerosonic 26/06/21 9 0 - 0 -
Cheeky Prawn 20/06/21 5 0 - 0 -
Red Titan 13/06/21 1 0 - 0 -
Salutation 13/06/21 0 0 - 0 -
Determined 13/06/21 0 0 - 0 -